BCS2213 EGGW-EDDP
Flight info
| Callsign | BCS2213 |
|---|---|
| Flight time | N/A |
| Altitude | 37000 |
| Route | MATCH Q295 BRAIN M197 REDFA DCT TACHA DCT NORTA/N0354F230 DCT ADMOS T959 KOJEC KOJEC1R |
| Aircraft | B752/M-SDE2E3FGHIJ3J4J7RWXY/LB1 |
Departure
| Time | 2026-04-29 16:24 |
|---|---|
| Airport | London Luton Airport (EGGW) |
Arrival
| Time | N/A |
|---|---|
| Airport | Leipzig/Halle Airport (EDDP) |
| Time | Latitude | Longitude | Altitude | Speed | Heading |
|---|---|---|---|---|---|
| 2026-04-29 15:56 | 51.88072 | -0.37347 | 522 ft | 0 kts | 342° |
| 2026-04-29 16:03 | 51.88072 | -0.37346 | 522 ft | 0 kts | 342° |
| 2026-04-29 16:10 | 51.88066 | -0.37343 | 521 ft | 2 kts | 342° |
| 2026-04-29 16:10 | 51.88052 | -0.37335 | 521 ft | 2 kts | 343° |
| 2026-04-29 16:11 | 51.88033 | -0.37327 | 521 ft | 3 kts | 348° |
| 2026-04-29 16:11 | 51.88009 | -0.37327 | 522 ft | 3 kts | 20° |
| 2026-04-29 16:11 | 51.87994 | -0.37346 | 522 ft | 2 kts | 65° |
| 2026-04-29 16:11 | 51.87993 | -0.37365 | 523 ft | 1 kts | 79° |
| 2026-04-29 16:12 | 51.87990 | -0.37375 | 523 ft | 1 kts | 76° |
| 2026-04-29 16:12 | 51.87988 | -0.37394 | 524 ft | 1 kts | 79° |
| 2026-04-29 16:12 | 51.87986 | -0.37406 | 524 ft | 0 kts | 72° |
| 2026-04-29 16:14 | 51.87987 | -0.37404 | 524 ft | 1 kts | 72° |
| 2026-04-29 16:15 | 51.87993 | -0.37374 | 523 ft | 3 kts | 67° |
| 2026-04-29 16:15 | 51.88009 | -0.37320 | 522 ft | 7 kts | 66° |
| 2026-04-29 16:15 | 51.88034 | -0.37223 | 519 ft | 11 kts | 70° |
| 2026-04-29 16:15 | 51.88020 | -0.37129 | 519 ft | 6 kts | 148° |
| 2026-04-29 16:16 | 51.87994 | -0.37112 | 519 ft | 2 kts | 161° |
| 2026-04-29 16:16 | 51.87949 | -0.37090 | 520 ft | 11 kts | 163° |
| 2026-04-29 16:16 | 51.87859 | -0.37044 | 522 ft | 13 kts | 163° |
| 2026-04-29 16:16 | 51.87781 | -0.37006 | 524 ft | 9 kts | 166° |
| 2026-04-29 16:17 | 51.87737 | -0.36982 | 526 ft | 5 kts | 159° |
| 2026-04-29 16:17 | 51.87705 | -0.36962 | 526 ft | 5 kts | 159° |
| 2026-04-29 16:17 | 51.87665 | -0.36942 | 528 ft | 5 kts | 176° |
| 2026-04-29 16:17 | 51.87633 | -0.36966 | 529 ft | 5 kts | 233° |
| 2026-04-29 16:18 | 51.87616 | -0.37035 | 530 ft | 7 kts | 253° |
| 2026-04-29 16:18 | 51.87598 | -0.37133 | 530 ft | 10 kts | 255° |
| 2026-04-29 16:18 | 51.87580 | -0.37257 | 530 ft | 12 kts | 263° |
| 2026-04-29 16:18 | 51.87585 | -0.37399 | 530 ft | 6 kts | 272° |
| 2026-04-29 16:19 | 51.87566 | -0.37443 | 531 ft | 5 kts | 218° |
| 2026-04-29 16:19 | 51.87527 | -0.37478 | 531 ft | 7 kts | 212° |
| 2026-04-29 16:19 | 51.87486 | -0.37537 | 532 ft | 8 kts | 227° |
| 2026-04-29 16:19 | 51.87438 | -0.37616 | 532 ft | 11 kts | 226° |
| 2026-04-29 16:20 | 51.87371 | -0.37690 | 532 ft | 10 kts | 191° |
| 2026-04-29 16:20 | 51.87311 | -0.37758 | 530 ft | 13 kts | 246° |
| 2026-04-29 16:20 | 51.87276 | -0.37930 | 524 ft | 19 kts | 256° |
| 2026-04-29 16:20 | 51.87244 | -0.38133 | 512 ft | 15 kts | 254° |
| 2026-04-29 16:21 | 51.87234 | -0.38238 | 505 ft | 0 kts | 274° |
| 2026-04-29 16:22 | 51.87235 | -0.38266 | 502 ft | 9 kts | 270° |
| 2026-04-29 16:22 | 51.87221 | -0.38304 | 499 ft | 2 kts | 160° |
| 2026-04-29 16:22 | 51.87217 | -0.38281 | 501 ft | 5 kts | 84° |
| 2026-04-29 16:23 | 51.87236 | -0.38153 | 511 ft | 26 kts | 77° |
| 2026-04-29 16:23 | 51.87345 | -0.37576 | 533 ft | 82 kts | 67° |
| 2026-04-29 16:23 | 51.87561 | -0.36371 | 525 ft | 140 kts | 78° |
| 2026-04-29 16:23 | 51.87870 | -0.34617 | 692 ft | 177 kts | 74° |
| 2026-04-29 16:24 | 51.88262 | -0.32647 | 1340 ft | 193 kts | 72° |
| 2026-04-29 16:24 | 51.88595 | -0.30572 | 2313 ft | 193 kts | 77° |
| 2026-04-29 16:24 | 51.88926 | -0.28503 | 2895 ft | 196 kts | 75° |
| 2026-04-29 16:24 | 51.89302 | -0.26317 | 3259 ft | 210 kts | 75° |
| 2026-04-29 16:25 | 51.89494 | -0.24004 | 3838 ft | 214 kts | 98° |
| 2026-04-29 16:25 | 51.88876 | -0.21760 | 4190 ft | 235 kts | 130° |
| 2026-04-29 16:25 | 51.87487 | -0.20157 | 4624 ft | 255 kts | 147° |
| 2026-04-29 16:25 | 51.85897 | -0.18833 | 5014 ft | 265 kts | 148° |
| 2026-04-29 16:26 | 51.84223 | -0.17501 | 4988 ft | 265 kts | 149° |
| 2026-04-29 16:26 | 51.82600 | -0.16264 | 4983 ft | 254 kts | 148° |
| 2026-04-29 16:26 | 51.81014 | -0.15081 | 4995 ft | 249 kts | 149° |
| 2026-04-29 16:26 | 51.79441 | -0.13921 | 5012 ft | 253 kts | 149° |
| 2026-04-29 16:27 | 51.77808 | -0.12734 | 5392 ft | 258 kts | 149° |
| 2026-04-29 16:27 | 51.76411 | -0.11170 | 6223 ft | 245 kts | 125° |
| 2026-04-29 16:27 | 51.75678 | -0.08748 | 6806 ft | 245 kts | 97° |
| 2026-04-29 16:27 | 51.75672 | -0.06021 | 7492 ft | 247 kts | 88° |
| 2026-04-29 16:28 | 51.75788 | -0.03266 | 8126 ft | 251 kts | 87° |
| 2026-04-29 16:28 | 51.75946 | -0.00460 | 8765 ft | 254 kts | 86° |
| 2026-04-29 16:28 | 51.76135 | 0.02371 | 9368 ft | 258 kts | 85° |
| 2026-04-29 16:28 | 51.76348 | 0.05276 | 9955 ft | 262 kts | 84° |
| 2026-04-29 16:29 | 51.76570 | 0.08179 | 10532 ft | 266 kts | 84° |
| 2026-04-29 16:29 | 51.76804 | 0.11144 | 11085 ft | 270 kts | 84° |
| 2026-04-29 16:29 | 51.77047 | 0.14170 | 11659 ft | 273 kts | 84° |
| 2026-04-29 16:29 | 51.77315 | 0.17197 | 12247 ft | 276 kts | 79° |
| 2026-04-29 16:30 | 51.77825 | 0.20286 | 12440 ft | 295 kts | 76° |
| 2026-04-29 16:30 | 51.78379 | 0.23557 | 12613 ft | 313 kts | 77° |
| 2026-04-29 16:30 | 51.78947 | 0.27058 | 12770 ft | 331 kts | 77° |
| 2026-04-29 16:30 | 51.79538 | 0.30748 | 12901 ft | 350 kts | 77° |
| 2026-04-29 16:31 | 51.80152 | 0.34627 | 13351 ft | 358 kts | 77° |
| 2026-04-29 16:31 | 51.80762 | 0.38495 | 13937 ft | 362 kts | 77° |
| 2026-04-29 16:31 | 51.81358 | 0.42308 | 14467 ft | 365 kts | 77° |
| 2026-04-29 16:31 | 51.81972 | 0.46248 | 14985 ft | 369 kts | 77° |
| 2026-04-29 16:32 | 51.82603 | 0.50318 | 15501 ft | 372 kts | 77° |
| 2026-04-29 16:32 | 51.83226 | 0.54337 | 15985 ft | 376 kts | 77° |
| 2026-04-29 16:32 | 51.83692 | 0.57356 | 16343 ft | 378 kts | 76° |
| 2026-04-29 16:32 | 51.84192 | 0.60601 | 16724 ft | 381 kts | 76° |
| 2026-04-29 16:33 | 51.85479 | 0.68992 | 17667 ft | 386 kts | 77° |
| 2026-04-29 16:33 | 51.86095 | 0.73021 | 18094 ft | 389 kts | 77° |
| 2026-04-29 16:33 | 51.86519 | 0.75802 | 18376 ft | 391 kts | 77° |
| 2026-04-29 16:34 | 51.87134 | 0.79842 | 18776 ft | 394 kts | 77° |
| 2026-04-29 16:34 | 51.87785 | 0.84129 | 19192 ft | 397 kts | 77° |
| 2026-04-29 16:34 | 51.88442 | 0.88470 | 19604 ft | 400 kts | 77° |
| 2026-04-29 16:34 | 51.89106 | 0.92866 | 20017 ft | 403 kts | 77° |
| 2026-04-29 16:35 | 51.89772 | 0.97291 | 20432 ft | 406 kts | 77° |
| 2026-04-29 16:35 | 51.90435 | 1.01709 | 20834 ft | 408 kts | 77° |
| 2026-04-29 16:35 | 51.91110 | 1.06208 | 21238 ft | 411 kts | 77° |
| 2026-04-29 16:35 | 51.91776 | 1.10675 | 21635 ft | 413 kts | 77° |
| 2026-04-29 16:36 | 51.92450 | 1.15200 | 22033 ft | 416 kts | 77° |
| 2026-04-29 16:36 | 51.93121 | 1.19722 | 22427 ft | 418 kts | 77° |
| 2026-04-29 16:36 | 51.93799 | 1.24309 | 22824 ft | 421 kts | 77° |
| 2026-04-29 16:36 | 51.94482 | 1.28936 | 23227 ft | 423 kts | 77° |
| 2026-04-29 16:37 | 51.95160 | 1.33545 | 23622 ft | 425 kts | 77° |
| 2026-04-29 16:37 | 51.95844 | 1.38204 | 24010 ft | 427 kts | 77° |
| 2026-04-29 16:37 | 51.96527 | 1.42873 | 24392 ft | 429 kts | 77° |
| 2026-04-29 16:37 | 51.96987 | 1.46027 | 24653 ft | 430 kts | 77° |
| 2026-04-29 16:38 | 51.97895 | 1.52274 | 25177 ft | 432 kts | 77° |
| 2026-04-29 16:38 | 51.98586 | 1.57037 | 25564 ft | 434 kts | 77° |
| 2026-04-29 16:38 | 51.99269 | 1.61770 | 25940 ft | 436 kts | 77° |
| 2026-04-29 16:38 | 51.99958 | 1.66547 | 26319 ft | 437 kts | 78° |
| 2026-04-29 16:39 | 52.00648 | 1.71356 | 26699 ft | 439 kts | 78° |
| 2026-04-29 16:39 | 52.01336 | 1.76164 | 27067 ft | 441 kts | 78° |
| 2026-04-29 16:39 | 52.02029 | 1.81021 | 27435 ft | 442 kts | 78° |
| 2026-04-29 16:39 | 52.02715 | 1.85846 | 27783 ft | 444 kts | 78° |
| 2026-04-29 16:40 | 52.03411 | 1.90752 | 28132 ft | 445 kts | 78° |
| 2026-04-29 16:40 | 52.04100 | 1.95626 | 28477 ft | 447 kts | 78° |
| 2026-04-29 16:40 | 52.04800 | 2.00592 | 28822 ft | 448 kts | 78° |
| 2026-04-29 16:40 | 52.05487 | 2.05493 | 29143 ft | 450 kts | 78° |
| 2026-04-29 16:41 | 52.06182 | 2.10453 | 29458 ft | 452 kts | 78° |
| 2026-04-29 16:41 | 52.06871 | 2.15398 | 29792 ft | 453 kts | 78° |
| 2026-04-29 16:41 | 52.07571 | 2.20430 | 30135 ft | 455 kts | 78° |
| 2026-04-29 16:41 | 52.08261 | 2.25416 | 30503 ft | 455 kts | 78° |
| 2026-04-29 16:42 | 52.08946 | 2.30372 | 30918 ft | 454 kts | 78° |
| 2026-04-29 16:42 | 52.09635 | 2.35379 | 31311 ft | 453 kts | 78° |
| 2026-04-29 16:42 | 52.10313 | 2.40322 | 31670 ft | 452 kts | 78° |
| 2026-04-29 16:42 | 52.10994 | 2.45303 | 32038 ft | 451 kts | 78° |
| 2026-04-29 16:43 | 52.11710 | 2.50222 | 32401 ft | 450 kts | 75° |
| 2026-04-29 16:43 | 52.12648 | 2.55076 | 32747 ft | 449 kts | 73° |
| 2026-04-29 16:43 | 52.13582 | 2.59929 | 33099 ft | 447 kts | 73° |
| 2026-04-29 16:43 | 52.14502 | 2.64736 | 33409 ft | 446 kts | 73° |
| 2026-04-29 16:44 | 52.15425 | 2.69582 | 33735 ft | 445 kts | 74° |
| 2026-04-29 16:44 | 52.16324 | 2.74323 | 34043 ft | 443 kts | 74° |
| 2026-04-29 16:44 | 52.17234 | 2.79136 | 34348 ft | 442 kts | 74° |
| 2026-04-29 16:44 | 52.18125 | 2.83861 | 34626 ft | 440 kts | 73° |
| 2026-04-29 16:45 | 52.19026 | 2.88655 | 34899 ft | 439 kts | 73° |
| 2026-04-29 16:45 | 52.19911 | 2.93376 | 35159 ft | 438 kts | 73° |
| 2026-04-29 16:45 | 52.20784 | 2.98046 | 35360 ft | 433 kts | 73° |
| 2026-04-29 16:45 | 52.21653 | 3.02707 | 35358 ft | 432 kts | 73° |
| 2026-04-29 16:46 | 52.23402 | 3.12124 | 35360 ft | 434 kts | 73° |
| 2026-04-29 16:46 | 52.25042 | 3.21503 | 35314 ft | 431 kts | 79° |
| 2026-04-29 16:47 | 52.25272 | 3.31236 | 35317 ft | 434 kts | 90° |
| 2026-04-29 16:47 | 52.25027 | 3.41008 | 35316 ft | 434 kts | 90° |
| 2026-04-29 16:48 | 52.24735 | 3.50809 | 35316 ft | 433 kts | 90° |
| 2026-04-29 16:48 | 52.24421 | 3.60556 | 35316 ft | 432 kts | 90° |
| 2026-04-29 16:49 | 52.24089 | 3.70334 | 35321 ft | 432 kts | 91° |
| 2026-04-29 16:49 | 52.23750 | 3.80027 | 35318 ft | 431 kts | 91° |
| 2026-04-29 16:50 | 52.23401 | 3.89744 | 35313 ft | 431 kts | 91° |
| 2026-04-29 16:50 | 52.23042 | 3.99522 | 35307 ft | 431 kts | 91° |
| 2026-04-29 16:51 | 52.22676 | 4.09224 | 35305 ft | 431 kts | 91° |
| 2026-04-29 16:51 | 52.22301 | 4.18971 | 35303 ft | 431 kts | 91° |
| 2026-04-29 16:52 | 52.21918 | 4.28707 | 35302 ft | 430 kts | 91° |
| 2026-04-29 16:52 | 52.21529 | 4.38373 | 35301 ft | 430 kts | 91° |
| 2026-04-29 16:53 | 52.21131 | 4.48087 | 35301 ft | 430 kts | 90° |
| 2026-04-29 16:53 | 52.20725 | 4.57816 | 35302 ft | 431 kts | 90° |
| 2026-04-29 16:54 | 52.20311 | 4.67497 | 35308 ft | 430 kts | 91° |